createdAt,value
2023-01-23T00:04:52.165Z,19.77
2023-01-23T00:09:54.323Z,19.15
2023-01-23T00:14:56.530Z,16.65
2023-01-23T00:19:59.602Z,18.75
2023-01-23T00:25:01.784Z,16.95
2023-01-23T00:30:04.850Z,19.30
2023-01-23T00:35:07.486Z,15.85
2023-01-23T00:40:10.314Z,16.13
2023-01-23T00:45:13.594Z,16.23
2023-01-23T00:50:15.906Z,15.98
2023-01-23T00:55:18.084Z,17.05
2023-01-23T01:00:20.615Z,17.23
2023-01-23T01:05:23.143Z,15.30
2023-01-23T01:10:29.441Z,16.40
2023-01-23T01:15:31.853Z,19.23
2023-01-23T01:20:33.935Z,19.20
2023-01-23T01:25:38.776Z,22.60
2023-01-23T01:30:41.327Z,15.77
2023-01-23T01:35:43.867Z,20.20
2023-01-23T01:40:46.077Z,15.52
2023-01-23T01:46:14.680Z,17.02
2023-01-23T01:51:19.763Z,13.00
2023-01-23T01:56:22.240Z,14.95
2023-01-23T02:01:24.789Z,15.70
2023-01-23T02:06:27.330Z,15.60
2023-01-23T02:11:30.136Z,13.40
2023-01-23T02:16:41.047Z,14.85
2023-01-23T02:21:44.836Z,15.20
2023-01-23T02:26:47.259Z,15.00
2023-01-23T02:31:52.933Z,13.43
2023-01-23T02:36:56.307Z,13.07
2023-01-23T02:42:00.725Z,16.67
2023-01-23T02:52:32.070Z,16.83
2023-01-23T02:57:34.894Z,18.73
2023-01-23T03:02:38.358Z,16.00
2023-01-23T03:07:40.496Z,14.95
2023-01-23T03:12:43.578Z,15.57
2023-01-23T03:17:46.598Z,17.15
2023-01-23T03:22:49.152Z,16.08
2023-01-23T03:27:51.226Z,15.73
2023-01-23T03:32:53.463Z,17.25
2023-01-23T03:37:55.659Z,17.27
2023-01-23T03:42:58.075Z,13.88
2023-01-23T03:48:03.328Z,15.07
2023-01-23T03:53:05.935Z,15.20
2023-01-23T03:58:08.050Z,16.70
2023-01-23T04:03:11.541Z,17.58
2023-01-23T04:08:14.581Z,17.65
2023-01-23T04:13:17.253Z,16.17
2023-01-23T04:18:19.827Z,17.58
2023-01-23T04:23:22.455Z,16.80
2023-01-23T04:28:24.703Z,16.80
2023-01-23T04:33:26.963Z,16.25
2023-01-23T04:38:30.493Z,16.48
2023-01-23T04:43:40.031Z,21.23
2023-01-23T04:53:52.079Z,15.98
2023-01-23T04:58:54.712Z,15.07
2023-01-23T05:03:58.812Z,14.15
2023-01-23T05:09:00.973Z,15.30
2023-01-23T05:14:14.056Z,16.25
2023-01-23T05:19:17.587Z,17.88
2023-01-23T05:24:20.206Z,13.70
2023-01-23T05:29:23.379Z,13.00
2023-01-23T05:34:35.246Z,14.40
2023-01-23T05:39:39.174Z,16.05
2023-01-23T05:44:41.266Z,16.05
2023-01-23T05:49:50.091Z,15.25
2023-01-23T05:54:52.371Z,12.32
2023-01-23T05:59:54.646Z,16.95
2023-01-23T06:05:16.872Z,14.88
2023-01-23T06:10:33.274Z,13.35
2023-01-23T06:15:36.797Z,21.63
2023-01-23T06:20:43.905Z,34.67
2023-01-23T06:25:46.112Z,35.13
2023-01-23T06:30:48.356Z,24.65
2023-01-23T06:36:01.403Z,17.00
2023-01-23T06:41:03.511Z,13.00
2023-01-23T06:46:11.802Z,14.20
2023-01-23T06:51:14.159Z,16.17
2023-01-23T06:56:19.165Z,16.35
2023-01-23T07:01:22.909Z,17.10
2023-01-23T07:06:43.784Z,17.00
2023-01-23T07:11:48.932Z,17.33
2023-01-23T07:16:51.355Z,18.25
2023-01-23T07:21:53.507Z,14.57
2023-01-23T07:26:55.554Z,14.90
2023-01-23T07:32:00.059Z,15.95
2023-01-23T07:37:02.190Z,13.00
2023-01-23T07:42:04.281Z,14.43
2023-01-23T07:47:06.569Z,14.30
2023-01-23T07:52:08.728Z,16.65
2023-01-23T07:57:10.782Z,15.93
2023-01-23T08:02:12.803Z,19.73
2023-01-23T08:07:14.998Z,18.65
2023-01-23T08:12:17.048Z,17.58
2023-01-23T08:17:19.070Z,15.82
2023-01-23T08:22:21.097Z,18.30
2023-01-23T08:27:23.217Z,17.08
2023-01-23T08:32:25.266Z,16.25
2023-01-23T08:37:27.447Z,18.85
2023-01-23T08:42:29.582Z,19.83
2023-01-23T08:47:36.577Z,21.23
2023-01-23T08:52:39.011Z,19.83
2023-01-23T08:57:41.051Z,18.27
2023-01-23T09:02:43.097Z,15.55
2023-01-23T09:07:45.208Z,18.33
2023-01-23T09:12:47.208Z,18.17
2023-01-23T09:17:49.955Z,17.60
2023-01-23T09:22:52.608Z,19.88
2023-01-23T09:27:54.635Z,20.63
2023-01-23T09:32:56.812Z,20.70
2023-01-23T09:38:01.979Z,23.23
2023-01-23T09:43:23.150Z,21.23
2023-01-23T09:48:47.778Z,19.35
2023-01-23T09:53:50.034Z,15.85
2023-01-23T09:59:14.415Z,16.80
2023-01-23T10:04:19.461Z,16.85
2023-01-23T10:09:49.170Z,13.05
2023-01-23T10:14:57.456Z,13.43
2023-01-23T10:20:16.594Z,14.25
2023-01-23T10:25:23.215Z,14.65
2023-01-23T10:30:38.611Z,16.75
2023-01-23T10:35:50.715Z,12.88
2023-01-23T10:41:11.683Z,15.48
2023-01-23T10:46:17.445Z,18.60
2023-01-23T10:51:35.606Z,16.63
2023-01-23T10:56:59.537Z,18.05
2023-01-23T11:02:16.725Z,15.07
2023-01-23T11:07:30.884Z,20.58
2023-01-23T11:12:35.308Z,17.33
2023-01-23T11:17:39.027Z,21.30
2023-01-23T11:22:42.265Z,21.00
2023-01-23T11:28:00.447Z,19.10
2023-01-23T11:33:06.285Z,23.77
2023-01-23T11:38:13.038Z,21.48
2023-01-23T11:43:16.430Z,17.73
2023-01-23T11:48:30.277Z,19.30
2023-01-23T11:53:56.704Z,17.27
2023-01-23T11:59:20.152Z,16.92
2023-01-23T12:04:46.860Z,14.45
2023-01-23T12:10:00.832Z,12.30
2023-01-23T12:15:30.644Z,13.48
2023-01-23T12:20:44.848Z,8.95
2023-01-23T12:26:15.257Z,10.35
2023-01-23T12:31:26.254Z,6.07
2023-01-23T12:37:07.217Z,7.60
2023-01-23T12:42:25.209Z,9.02
2023-01-23T12:47:50.159Z,4.93
2023-01-23T12:53:12.471Z,5.80
2023-01-23T12:58:19.091Z,4.47
2023-01-23T13:03:46.596Z,4.97
2023-01-23T13:09:19.703Z,6.03
2023-01-23T13:14:47.490Z,2.20
2023-01-23T13:20:12.308Z,2.45
2023-01-23T13:25:18.957Z,4.70
2023-01-23T13:30:26.699Z,4.78
2023-01-23T13:35:44.823Z,5.10
2023-01-23T13:41:05.007Z,3.55
2023-01-23T13:46:22.338Z,2.13
2023-01-23T14:24:03.805Z,4.45
2023-01-23T14:29:20.631Z,5.15
2023-01-23T14:34:24.443Z,3.70
2023-01-23T14:39:32.077Z,2.53
2023-01-23T14:44:47.016Z,5.03
2023-01-23T14:49:49.416Z,5.10
2023-01-23T14:54:54.386Z,5.85
2023-01-23T15:05:16.578Z,4.75
2023-01-23T15:10:40.047Z,6.75
2023-01-23T15:15:48.718Z,3.80
2023-01-23T15:20:56.941Z,7.53
2023-01-23T15:26:17.735Z,4.97
2023-01-23T15:31:42.334Z,6.28
2023-01-23T15:37:06.613Z,6.80
2023-01-23T15:42:14.694Z,8.35
2023-01-23T15:47:16.948Z,8.55
2023-01-23T15:52:22.817Z,10.25
2023-01-23T16:02:32.309Z,6.18
2023-01-23T16:07:39.391Z,4.47
2023-01-23T16:17:43.868Z,5.85
2023-01-23T16:22:51.956Z,5.65
2023-01-23T16:27:54.277Z,5.80
2023-01-23T16:32:57.271Z,6.40
2023-01-23T16:38:00.220Z,9.25
2023-01-23T16:43:03.142Z,6.45
2023-01-23T16:48:06.398Z,10.00
2023-01-23T16:53:25.014Z,7.00
2023-01-23T16:58:31.241Z,6.22
2023-01-23T17:03:36.142Z,5.07
2023-01-23T17:08:38.884Z,7.63
2023-01-23T17:13:40.919Z,11.38
2023-01-23T17:18:43.050Z,15.57
2023-01-23T17:23:45.181Z,19.95
2023-01-23T17:28:47.281Z,18.38
2023-01-23T17:33:50.154Z,17.63
2023-01-23T17:38:55.423Z,17.58
2023-01-23T17:43:57.631Z,13.10
2023-01-23T17:49:00.369Z,12.50
2023-01-23T17:54:02.481Z,14.13
2023-01-23T17:59:04.529Z,15.32
2023-01-23T18:04:18.500Z,15.57
2023-01-23T18:09:21.912Z,17.42
2023-01-23T18:15:01.869Z,18.63
2023-01-23T18:20:14.877Z,18.25
2023-01-23T18:25:19.102Z,18.88
2023-01-23T18:30:30.674Z,21.87
2023-01-23T18:35:53.673Z,23.23
2023-01-23T18:41:11.271Z,29.70
2023-01-23T18:46:20.800Z,30.98
2023-01-23T18:51:35.044Z,31.90
2023-01-23T18:56:53.051Z,28.83
2023-01-23T19:02:01.938Z,29.40
2023-01-23T19:07:05.764Z,29.40
2023-01-23T19:12:25.377Z,27.65
2023-01-23T19:17:49.033Z,29.63
2023-01-23T19:23:01.718Z,32.80
2023-01-23T19:28:04.143Z,29.92
2023-01-23T19:33:06.556Z,28.38
2023-01-23T19:38:08.677Z,27.13
2023-01-23T19:43:16.056Z,28.35
2023-01-23T19:48:18.223Z,39.75
2023-01-23T19:53:20.583Z,60.58
2023-01-23T19:58:22.680Z,40.92
2023-01-23T20:03:24.798Z,38.53
2023-01-23T20:08:27.014Z,34.13
2023-01-23T20:13:29.157Z,37.30
2023-01-23T20:18:31.205Z,34.88
2023-01-23T20:23:33.352Z,33.67
2023-01-23T20:28:36.149Z,33.92
2023-01-23T20:33:40.301Z,30.40
2023-01-23T20:38:43.942Z,28.90
2023-01-23T20:43:46.872Z,31.13
2023-01-23T20:48:49.064Z,52.90
2023-01-23T20:53:51.181Z,51.30
2023-01-23T20:59:13.243Z,51.10
2023-01-23T21:04:15.295Z,35.10
2023-01-23T21:09:17.967Z,34.85
2023-01-23T21:14:21.531Z,31.48
2023-01-23T21:19:24.030Z,30.02
2023-01-23T21:24:27.563Z,35.30
2023-01-23T21:29:30.532Z,32.78
2023-01-23T21:34:33.315Z,28.00
2023-01-23T21:39:35.490Z,29.50
2023-01-23T21:44:37.543Z,30.83
2023-01-23T21:49:39.599Z,36.05
2023-01-23T21:54:42.738Z,35.42
2023-01-23T22:00:04.883Z,32.30
2023-01-23T22:05:14.368Z,30.15
2023-01-23T22:10:16.734Z,29.83
2023-01-23T22:15:19.123Z,34.83
2023-01-23T22:20:21.686Z,28.38
2023-01-23T22:25:23.829Z,34.65
2023-01-23T22:30:25.987Z,30.27
2023-01-23T22:35:28.400Z,32.30
2023-01-23T22:40:30.510Z,25.88
2023-01-23T22:45:32.816Z,27.27
2023-01-23T22:50:34.862Z,25.20
2023-01-23T22:55:38.431Z,23.25
2023-01-23T23:00:42.710Z,25.27
2023-01-23T23:05:44.865Z,28.40
2023-01-23T23:10:47.022Z,22.88
2023-01-23T23:15:49.052Z,26.02
2023-01-23T23:20:51.235Z,24.48
2023-01-23T23:25:54.837Z,23.52
2023-01-23T23:30:56.947Z,20.80
2023-01-23T23:35:59.134Z,20.40
2023-01-23T23:41:06.888Z,17.30
2023-01-23T23:46:10.697Z,15.05
2023-01-23T23:51:15.205Z,17.08
2023-01-23T23:56:21.484Z,15.40
